createdAt,value
2018-03-28T00:01:17.203Z,98.63
2018-03-28T00:03:45.464Z,98.81
2018-03-28T00:06:13.745Z,99.07
2018-03-28T00:08:42.001Z,99.02
2018-03-28T00:11:11.058Z,98.44
2018-03-28T00:13:39.322Z,98.82
2018-03-28T00:16:08.341Z,99.02
2018-03-28T00:18:36.617Z,99.08
2018-03-28T00:21:04.905Z,99.20
2018-03-28T00:23:33.174Z,99.53
2018-03-28T00:26:01.453Z,99.72
2018-03-28T00:28:29.717Z,100.00
2018-03-28T00:30:57.977Z,99.79
2018-03-28T00:33:26.252Z,100.00
2018-03-28T00:35:54.512Z,99.46
2018-03-28T00:38:22.779Z,99.70
2018-03-28T00:40:51.049Z,99.67
2018-03-28T00:43:19.329Z,99.47
2018-03-28T00:45:47.588Z,99.88
2018-03-28T00:48:15.856Z,100.00
2018-03-28T00:50:44.904Z,100.00
2018-03-28T00:53:13.239Z,100.00
2018-03-28T00:55:41.596Z,100.00
2018-03-28T00:58:09.936Z,100.00
2018-03-28T01:00:38.289Z,100.00
2018-03-28T01:03:06.584Z,100.00
2018-03-28T01:05:34.865Z,100.00
2018-03-28T01:08:03.138Z,100.00
2018-03-28T01:10:32.169Z,100.00
2018-03-28T01:13:00.452Z,100.00
2018-03-28T01:15:29.488Z,100.00
2018-03-28T01:17:57.797Z,100.00
2018-03-28T01:20:26.040Z,100.00
2018-03-28T01:22:54.353Z,100.00
2018-03-28T01:25:22.608Z,100.00
2018-03-28T01:27:50.887Z,100.00
2018-03-28T01:30:19.163Z,100.00
2018-03-28T01:32:47.432Z,100.00
2018-03-28T01:35:15.744Z,100.00
2018-03-28T01:37:44.015Z,100.00
2018-03-28T01:40:12.280Z,100.00
2018-03-28T01:42:40.556Z,100.00
2018-03-28T01:45:08.824Z,100.00
2018-03-28T01:47:37.085Z,100.00
2018-03-28T01:50:05.380Z,100.00
2018-03-28T01:52:33.644Z,100.00
2018-03-28T01:55:01.914Z,100.00
2018-03-28T01:57:30.196Z,100.00
2018-03-28T01:59:58.457Z,100.00
2018-03-28T02:02:26.738Z,100.00
2018-03-28T02:04:55.006Z,100.00
2018-03-28T02:07:23.269Z,100.00
2018-03-28T02:09:51.557Z,100.00
2018-03-28T02:12:19.816Z,100.00
2018-03-28T02:14:48.084Z,100.00
2018-03-28T02:17:17.133Z,100.00
2018-03-28T02:19:45.397Z,100.00
2018-03-28T02:22:13.666Z,100.00
2018-03-28T02:24:41.952Z,100.00
2018-03-28T02:27:10.214Z,100.00
2018-03-28T02:29:38.478Z,100.00
2018-03-28T02:32:06.760Z,100.00
2018-03-28T02:34:35.029Z,100.00
2018-03-28T02:37:03.289Z,100.00
2018-03-28T02:39:32.349Z,100.00
2018-03-28T02:42:00.609Z,100.00
2018-03-28T02:44:28.883Z,100.00
2018-03-28T02:46:57.168Z,100.00
2018-03-28T02:49:25.428Z,100.00
2018-03-28T02:51:53.710Z,100.00
2018-03-28T02:54:21.989Z,100.00
2018-03-28T02:56:50.253Z,100.00
2018-03-28T02:59:18.518Z,100.00
2018-03-28T03:01:46.797Z,100.00
2018-03-28T03:04:15.899Z,100.00
2018-03-28T03:06:44.150Z,100.00
2018-03-28T03:09:12.431Z,100.00
2018-03-28T03:11:40.692Z,100.00
2018-03-28T03:14:09.733Z,100.00
2018-03-28T03:16:38.015Z,100.00
2018-03-28T03:19:06.281Z,100.00
2018-03-28T03:21:34.549Z,100.00
2018-03-28T03:24:02.866Z,100.00
2018-03-28T03:26:31.135Z,100.00
2018-03-28T03:28:59.401Z,100.00
2018-03-28T03:31:27.671Z,99.96
2018-03-28T03:33:55.944Z,99.71
2018-03-28T03:36:24.201Z,100.00
2018-03-28T03:38:52.479Z,99.67
2018-03-28T03:41:20.793Z,100.00
2018-03-28T03:43:49.052Z,99.76
2018-03-28T03:46:17.328Z,100.00
2018-03-28T03:48:45.588Z,100.00
2018-03-28T03:51:13.865Z,99.35
2018-03-28T03:53:42.121Z,99.74
2018-03-28T03:56:10.414Z,100.00
2018-03-28T03:58:38.680Z,99.28
2018-03-28T04:01:06.937Z,99.87
2018-03-28T04:03:35.200Z,100.00
2018-03-28T04:06:04.236Z,99.93
2018-03-28T04:08:32.501Z,100.00
2018-03-28T04:11:00.760Z,100.00
2018-03-28T04:13:29.037Z,100.00
2018-03-28T04:15:57.299Z,100.00
2018-03-28T04:18:26.329Z,100.00
2018-03-28T04:20:54.632Z,100.00
2018-03-28T04:23:22.896Z,100.00
2018-03-28T04:25:51.176Z,100.00
2018-03-28T04:28:19.444Z,100.00
2018-03-28T04:30:47.710Z,100.00
2018-03-28T04:33:15.988Z,100.00
2018-03-28T04:35:44.264Z,100.00
2018-03-28T04:38:12.532Z,100.00
2018-03-28T04:40:40.841Z,100.00
2018-03-28T04:43:09.214Z,100.00
2018-03-28T04:45:37.478Z,100.00
2018-03-28T04:48:05.766Z,100.00
2018-03-28T04:50:34.026Z,100.00
2018-03-28T04:53:02.286Z,100.00
2018-03-28T04:55:30.605Z,100.00
2018-03-28T04:57:58.868Z,100.00
2018-03-28T05:00:27.124Z,100.00
2018-03-28T05:02:55.414Z,100.00
2018-03-28T05:05:23.672Z,100.00
2018-03-28T05:07:51.937Z,100.00
2018-03-28T05:10:20.251Z,100.00
2018-03-28T05:12:48.491Z,100.00
2018-03-28T05:15:16.746Z,100.00
2018-03-28T05:17:45.800Z,100.00
2018-03-28T05:20:14.066Z,100.00
2018-03-28T05:22:42.365Z,100.00
2018-03-28T05:25:10.626Z,100.00
2018-03-28T05:27:38.896Z,100.00
2018-03-28T05:30:07.201Z,100.00
2018-03-28T05:32:35.436Z,100.00
2018-03-28T05:35:03.721Z,100.00
2018-03-28T05:37:31.986Z,100.00
2018-03-28T05:40:00.275Z,100.00
2018-03-28T05:42:28.540Z,100.00
2018-03-28T05:44:56.808Z,100.00
2018-03-28T05:47:25.084Z,100.00
2018-03-28T05:49:53.354Z,100.00
2018-03-28T05:52:21.616Z,100.00
2018-03-28T05:54:49.905Z,100.00
2018-03-28T05:57:18.171Z,100.00
2018-03-28T05:59:46.437Z,100.00
2018-03-28T06:02:15.483Z,100.00
2018-03-28T06:04:43.760Z,100.00
2018-03-28T06:07:12.797Z,100.00
2018-03-28T06:09:41.838Z,100.00
2018-03-28T06:12:10.099Z,100.00
2018-03-28T06:14:38.375Z,100.00
2018-03-28T06:17:06.656Z,100.00
2018-03-28T06:19:34.992Z,100.00
2018-03-28T06:22:03.189Z,100.00
2018-03-28T06:24:31.477Z,100.00
2018-03-28T06:26:59.732Z,100.00
2018-03-28T06:29:27.993Z,100.00
2018-03-28T06:31:57.044Z,100.00
2018-03-28T06:34:25.338Z,100.00
2018-03-28T06:36:53.584Z,100.00
2018-03-28T06:39:21.869Z,100.00
2018-03-28T06:41:50.129Z,100.00
2018-03-28T06:44:18.394Z,100.00
2018-03-28T06:46:46.665Z,100.00
2018-03-28T06:49:14.930Z,100.00
2018-03-28T06:51:43.964Z,100.00
2018-03-28T06:54:12.254Z,100.00
2018-03-28T06:56:40.513Z,100.00
2018-03-28T06:59:08.768Z,99.36
2018-03-28T07:01:37.048Z,99.08
2018-03-28T07:04:05.305Z,99.44
2018-03-28T07:06:34.326Z,99.77
2018-03-28T07:09:02.596Z,99.65
2018-03-28T07:11:30.862Z,100.00
2018-03-28T07:13:59.127Z,99.21
2018-03-28T07:16:28.175Z,98.74
2018-03-28T07:18:56.433Z,97.30
2018-03-28T07:21:24.677Z,97.43
2018-03-28T07:23:53.027Z,97.34
2018-03-28T07:26:22.062Z,98.23
2018-03-28T07:28:50.324Z,96.34
2018-03-28T07:31:18.616Z,96.56
2018-03-28T07:33:46.922Z,96.80
2018-03-28T07:36:15.252Z,97.71
2018-03-28T07:38:43.642Z,96.91
2018-03-28T07:41:11.983Z,98.98
2018-03-28T07:43:41.071Z,97.26
2018-03-28T07:46:10.174Z,97.64
2018-03-28T07:48:39.290Z,97.44
2018-03-28T07:51:07.607Z,97.03
2018-03-28T07:53:35.976Z,96.44
2018-03-28T07:56:04.286Z,95.91
2018-03-28T07:58:32.650Z,95.55
2018-03-28T08:01:01.703Z,96.02
2018-03-28T08:03:30.056Z,96.03
2018-03-28T08:05:59.148Z,95.68
2018-03-28T08:08:28.208Z,95.47
2018-03-28T08:10:56.465Z,95.66
2018-03-28T08:13:24.719Z,95.06
2018-03-28T08:15:53.756Z,95.06
2018-03-28T08:18:22.031Z,95.33
2018-03-28T08:20:51.046Z,95.06
2018-03-28T08:23:19.320Z,93.85
2018-03-28T08:25:47.585Z,93.96
2018-03-28T08:28:16.619Z,93.87
2018-03-28T08:30:45.756Z,93.75
2018-03-28T08:33:14.017Z,94.38
2018-03-28T08:35:42.276Z,93.53
2018-03-28T08:38:10.559Z,93.65
2018-03-28T08:40:38.820Z,93.37
2018-03-28T08:43:07.859Z,93.88
2018-03-28T08:45:36.141Z,93.52
2018-03-28T08:48:04.413Z,91.53
2018-03-28T08:50:32.717Z,91.31
2018-03-28T08:53:00.996Z,90.85
2018-03-28T08:55:29.260Z,89.36
2018-03-28T08:57:57.535Z,88.26
2018-03-28T09:00:25.825Z,87.85
2018-03-28T09:02:55.348Z,84.93
2018-03-28T09:05:24.375Z,86.20
2018-03-28T09:07:52.657Z,87.98
2018-03-28T09:10:20.917Z,86.89
2018-03-28T09:12:49.184Z,87.25
2018-03-28T09:15:18.237Z,87.64
2018-03-28T09:17:46.501Z,87.05
2018-03-28T09:20:14.793Z,86.11
2018-03-28T09:22:43.136Z,85.18
2018-03-28T09:25:11.466Z,86.11
2018-03-28T09:27:40.567Z,84.96
2018-03-28T09:30:08.942Z,84.83
2018-03-28T09:32:37.986Z,83.75
2018-03-28T09:35:06.241Z,84.55
2018-03-28T09:37:34.528Z,83.16
2018-03-28T09:40:02.792Z,83.95
2018-03-28T09:42:31.052Z,84.29
2018-03-28T09:45:00.186Z,83.92
2018-03-28T09:47:28.440Z,82.67
2018-03-28T09:49:56.708Z,81.74
2018-03-28T09:52:24.989Z,81.73
2018-03-28T09:54:53.266Z,82.45
2018-03-28T09:57:21.528Z,80.06
2018-03-28T09:59:50.580Z,80.67
2018-03-28T10:02:18.851Z,80.13
2018-03-28T10:04:49.930Z,81.63
2018-03-28T10:07:19.001Z,84.32
2018-03-28T10:09:47.317Z,83.22
2018-03-28T10:12:15.546Z,84.49
2018-03-28T10:14:43.805Z,83.34
2018-03-28T10:17:12.072Z,82.92
2018-03-28T10:19:40.373Z,83.45
2018-03-28T10:22:08.636Z,83.02
2018-03-28T10:24:36.902Z,84.51
2018-03-28T10:27:05.180Z,83.00
2018-03-28T10:29:33.457Z,82.17
2018-03-28T10:32:01.728Z,83.05
2018-03-28T10:34:30.012Z,83.75
2018-03-28T10:36:58.284Z,83.79
2018-03-28T10:39:26.545Z,82.37
2018-03-28T10:41:54.845Z,83.47
2018-03-28T10:44:23.100Z,83.68
2018-03-28T10:46:51.380Z,83.41
2018-03-28T10:49:19.660Z,82.09
2018-03-28T10:51:47.925Z,82.48
2018-03-28T10:54:16.188Z,82.25
2018-03-28T10:56:44.482Z,83.88
2018-03-28T10:59:12.745Z,83.04
2018-03-28T11:01:41.005Z,82.67
2018-03-28T11:04:10.052Z,81.68
2018-03-28T11:06:38.316Z,81.12
2018-03-28T11:09:06.576Z,81.25
2018-03-28T11:11:35.598Z,81.44
2018-03-28T11:14:03.874Z,82.08
2018-03-28T11:16:32.134Z,82.13
2018-03-28T11:19:00.417Z,81.78
2018-03-28T11:21:28.689Z,81.49
2018-03-28T11:23:56.971Z,82.13
2018-03-28T11:26:25.260Z,82.63
2018-03-28T11:28:53.525Z,83.45
2018-03-28T11:31:21.788Z,84.13
2018-03-28T11:33:50.072Z,83.64
2018-03-28T11:36:18.342Z,83.62
2018-03-28T11:38:46.607Z,83.38
2018-03-28T11:41:14.893Z,82.95
2018-03-28T11:43:43.153Z,81.41
2018-03-28T11:46:11.425Z,80.01
2018-03-28T11:48:39.712Z,81.28
2018-03-28T11:51:07.986Z,82.10
2018-03-28T11:53:36.266Z,83.53
2018-03-28T11:56:04.545Z,83.99
2018-03-28T11:58:32.819Z,85.41
2018-03-28T12:01:01.096Z,85.52
2018-03-28T12:03:29.390Z,84.83
2018-03-28T12:05:57.645Z,85.32
2018-03-28T12:08:25.911Z,85.64
2018-03-28T12:10:54.188Z,85.94
2018-03-28T12:13:22.476Z,85.42
2018-03-28T12:15:50.741Z,84.23
2018-03-28T12:18:19.026Z,85.30
2018-03-28T12:20:47.284Z,85.89
2018-03-28T12:23:15.553Z,84.44
2018-03-28T12:25:44.597Z,83.61
2018-03-28T12:28:12.869Z,83.16
2018-03-28T12:30:41.126Z,83.11
2018-03-28T12:33:09.417Z,82.46
2018-03-28T12:35:37.689Z,81.60
2018-03-28T12:38:05.957Z,80.89
2018-03-28T12:40:34.236Z,80.31
2018-03-28T12:43:02.497Z,79.75
2018-03-28T12:45:30.802Z,80.77
2018-03-28T12:47:59.049Z,79.29
2018-03-28T12:50:27.307Z,78.88
2018-03-28T12:52:56.369Z,79.89
2018-03-28T12:55:24.720Z,79.39
2018-03-28T12:57:52.884Z,78.87
2018-03-28T13:00:21.161Z,78.29
2018-03-28T13:02:49.441Z,78.74
2018-03-28T13:05:17.754Z,77.43
2018-03-28T13:07:45.978Z,77.92
2018-03-28T13:10:14.265Z,78.93
2018-03-28T13:12:42.531Z,79.38
2018-03-28T13:15:10.810Z,79.81
2018-03-28T13:17:39.084Z,80.14
2018-03-28T13:20:07.348Z,80.39
2018-03-28T13:22:35.620Z,82.20
2018-03-28T13:25:03.917Z,82.10
2018-03-28T13:27:32.176Z,83.22
2018-03-28T13:30:00.440Z,84.37
2018-03-28T13:32:29.517Z,85.08
2018-03-28T13:34:57.784Z,83.83
2018-03-28T13:37:26.051Z,84.88
2018-03-28T13:39:54.336Z,85.98
2018-03-28T13:42:22.600Z,86.08
2018-03-28T13:44:50.871Z,86.39
2018-03-28T13:47:19.149Z,86.85
2018-03-28T13:49:47.412Z,87.09
2018-03-28T13:52:15.684Z,85.07
2018-03-28T13:54:43.969Z,84.87
2018-03-28T13:57:12.229Z,83.86
2018-03-28T13:59:40.501Z,84.08
2018-03-28T14:02:08.774Z,84.00
2018-03-28T14:04:37.037Z,83.26
2018-03-28T14:07:05.304Z,83.75
2018-03-28T14:09:34.353Z,82.42
2018-03-28T14:12:02.616Z,81.86
2018-03-28T14:14:30.877Z,81.85
2018-03-28T14:16:59.171Z,80.56
2018-03-28T14:19:27.436Z,80.38
2018-03-28T14:21:55.711Z,81.61
2018-03-28T14:24:23.982Z,81.30
2018-03-28T14:26:52.254Z,82.07
2018-03-28T14:29:20.516Z,81.89
2018-03-28T14:31:48.986Z,82.92
2018-03-28T14:34:18.020Z,83.05
2018-03-28T14:36:46.300Z,84.13
2018-03-28T14:39:15.441Z,86.03
2018-03-28T14:41:44.498Z,86.67
2018-03-28T14:44:12.760Z,85.96
2018-03-28T14:46:41.124Z,85.44
2018-03-28T14:49:09.396Z,86.31
2018-03-28T14:51:37.657Z,86.33
2018-03-28T14:54:06.765Z,87.03
2018-03-28T14:56:34.974Z,86.99
2018-03-28T14:59:03.239Z,88.78
2018-03-28T15:01:31.527Z,87.63
2018-03-28T15:03:59.816Z,88.96
2018-03-28T15:06:28.087Z,89.40
2018-03-28T15:08:56.369Z,90.89
2018-03-28T15:11:24.625Z,91.42
2018-03-28T15:13:52.940Z,92.45
2018-03-28T15:16:21.175Z,92.66
2018-03-28T15:18:49.466Z,93.20
2018-03-28T15:21:17.781Z,93.26
2018-03-28T15:23:46.806Z,93.98
2018-03-28T15:26:15.057Z,94.10
2018-03-28T15:28:44.237Z,94.10
2018-03-28T15:31:13.260Z,94.43
2018-03-28T15:33:41.529Z,94.62
2018-03-28T15:36:09.796Z,95.96
2018-03-28T15:38:38.865Z,96.08
2018-03-28T15:41:07.133Z,93.51
2018-03-28T15:43:35.418Z,95.24
2018-03-28T15:46:03.673Z,96.51
2018-03-28T15:48:32.051Z,97.29
2018-03-28T15:51:00.505Z,96.41
2018-03-28T15:53:29.971Z,97.60
2018-03-28T15:55:58.430Z,97.44
2018-03-28T15:58:27.489Z,98.14
2018-03-28T16:00:55.889Z,97.75
2018-03-28T16:03:24.549Z,97.70
2018-03-28T16:05:52.942Z,96.88
2018-03-28T16:08:21.331Z,96.59
2018-03-28T16:10:49.705Z,96.43
2018-03-28T16:13:18.640Z,96.21
2018-03-28T16:15:48.093Z,96.15
2018-03-28T16:18:17.378Z,95.04
2018-03-28T16:20:45.801Z,95.38
2018-03-28T16:23:14.339Z,97.11
2018-03-28T16:25:42.630Z,96.36
2018-03-28T16:28:10.952Z,96.00
2018-03-28T16:30:40.352Z,96.40
2018-03-28T16:33:10.575Z,95.88
2018-03-28T16:35:39.934Z,95.49
2018-03-28T16:38:08.527Z,95.78
2018-03-28T16:40:38.675Z,94.87
2018-03-28T16:43:07.718Z,95.21
2018-03-28T16:45:37.580Z,95.28
2018-03-28T16:48:07.606Z,95.81
2018-03-28T16:50:37.170Z,95.78
2018-03-28T16:53:07.022Z,95.38
2018-03-28T16:55:36.349Z,95.19
2018-03-28T16:58:05.744Z,95.91
2018-03-28T17:00:35.821Z,94.73
2018-03-28T17:03:05.140Z,94.59
2018-03-28T17:05:34.649Z,95.42
2018-03-28T17:08:04.202Z,95.82
2018-03-28T17:10:34.763Z,96.56
2018-03-28T17:13:04.502Z,95.98
2018-03-28T17:15:34.244Z,96.36
2018-03-28T17:18:05.057Z,96.47
2018-03-28T17:20:39.054Z,96.86
2018-03-28T17:23:09.225Z,98.06
2018-03-28T17:25:39.986Z,97.93
2018-03-28T17:28:09.802Z,97.37
2018-03-28T17:30:39.895Z,98.08
2018-03-28T17:33:10.004Z,97.46
2018-03-28T17:35:39.726Z,97.17
2018-03-28T17:38:10.082Z,97.91
2018-03-28T17:40:40.044Z,97.93
2018-03-28T17:43:10.965Z,98.17
2018-03-28T17:45:42.540Z,97.78
2018-03-28T17:48:13.242Z,97.91
2018-03-28T17:50:43.233Z,97.64
2018-03-28T17:53:13.220Z,98.16
2018-03-28T17:55:43.867Z,97.83
2018-03-28T17:58:13.873Z,97.47
2018-03-28T18:00:43.770Z,97.28
2018-03-28T18:03:14.806Z,98.13
2018-03-28T18:05:45.556Z,97.79
2018-03-28T18:08:15.737Z,98.19
2018-03-28T18:10:44.966Z,97.43
2018-03-28T18:13:15.197Z,96.88
2018-03-28T18:15:46.047Z,96.63
2018-03-28T18:18:15.473Z,96.35
2018-03-28T18:20:44.777Z,96.88
2018-03-28T18:23:14.083Z,96.74
2018-03-28T18:25:43.604Z,96.89
2018-03-28T18:28:12.892Z,97.26
2018-03-28T18:30:42.155Z,97.06
2018-03-28T18:33:12.484Z,97.80
2018-03-28T18:35:41.799Z,98.22
2018-03-28T18:38:11.936Z,99.05
2018-03-28T18:40:41.810Z,99.20
2018-03-28T18:43:12.846Z,99.87
2018-03-28T18:45:42.970Z,100.00
2018-03-28T18:48:12.520Z,100.00
2018-03-28T18:50:42.473Z,100.00
2018-03-28T18:53:12.970Z,100.00
2018-03-28T18:55:42.842Z,100.00
2018-03-28T18:58:12.643Z,100.00
2018-03-28T19:00:42.539Z,100.00
2018-03-28T19:03:12.701Z,100.00
2018-03-28T19:05:42.468Z,100.00
2018-03-28T19:08:12.821Z,100.00
2018-03-28T19:10:42.699Z,100.00
2018-03-28T19:13:13.284Z,100.00
2018-03-28T19:15:43.725Z,100.00
2018-03-28T19:18:15.090Z,100.00
2018-03-28T19:20:45.060Z,100.00
2018-03-28T19:23:15.134Z,100.00
2018-03-28T19:25:44.973Z,100.00
2018-03-28T19:28:15.228Z,100.00
2018-03-28T19:30:46.015Z,100.00
2018-03-28T19:33:16.160Z,100.00
2018-03-28T19:35:46.180Z,100.00
2018-03-28T19:38:16.232Z,100.00
2018-03-28T19:40:46.026Z,100.00
2018-03-28T19:43:16.039Z,100.00
2018-03-28T19:45:45.796Z,100.00
2018-03-28T19:48:15.387Z,100.00
2018-03-28T19:50:45.225Z,100.00
2018-03-28T19:53:16.427Z,100.00
2018-03-28T19:55:46.186Z,100.00
2018-03-28T19:58:17.117Z,100.00
2018-03-28T20:00:47.052Z,100.00
2018-03-28T20:03:18.804Z,100.00
2018-03-28T20:05:48.638Z,100.00
2018-03-28T20:08:19.279Z,100.00
2018-03-28T20:10:49.381Z,100.00
2018-03-28T20:13:19.509Z,100.00
2018-03-28T20:15:49.394Z,100.00
2018-03-28T20:18:20.141Z,98.53
2018-03-28T20:20:49.989Z,97.44
2018-03-28T20:23:21.268Z,95.95
2018-03-28T20:25:52.340Z,95.68
2018-03-28T20:28:22.356Z,94.59
2018-03-28T20:30:52.825Z,94.10
2018-03-28T20:33:22.492Z,93.42
2018-03-28T20:35:52.831Z,94.30
2018-03-28T20:38:22.572Z,92.93
2018-03-28T20:40:52.459Z,93.21
2018-03-28T20:43:23.577Z,92.36
2018-03-28T20:45:53.639Z,92.02
2018-03-28T20:48:23.304Z,91.87
2018-03-28T20:50:53.261Z,92.09
2018-03-28T20:53:24.802Z,92.56
2018-03-28T20:55:55.305Z,94.19
2018-03-28T20:58:26.048Z,96.91
2018-03-28T21:00:56.879Z,96.49
2018-03-28T21:03:26.802Z,95.16
2018-03-28T21:05:56.730Z,94.02
2018-03-28T21:08:26.603Z,94.64
2018-03-28T21:10:56.418Z,93.28
2018-03-28T21:13:27.129Z,94.30
2018-03-28T21:15:57.660Z,94.44
2018-03-28T21:18:28.423Z,95.33
2018-03-28T21:20:59.098Z,93.42
2018-03-28T21:23:29.082Z,92.20
2018-03-28T21:25:59.846Z,91.75
2018-03-28T21:28:29.712Z,89.92
2018-03-28T21:31:01.295Z,90.80
2018-03-28T21:33:31.419Z,91.74
2018-03-28T21:36:01.823Z,91.96
2018-03-28T21:38:32.581Z,91.74
2018-03-28T21:41:02.278Z,94.06
2018-03-28T21:43:32.147Z,93.31
2018-03-28T21:46:02.268Z,92.90
2018-03-28T21:48:32.395Z,93.04
2018-03-28T21:51:02.190Z,94.76
2018-03-28T21:53:32.070Z,94.35
2018-03-28T21:56:01.901Z,92.18
2018-03-28T21:58:31.773Z,94.09
2018-03-28T22:01:02.560Z,93.57
2018-03-28T22:03:32.725Z,92.66
2018-03-28T22:06:02.456Z,93.59
2018-03-28T22:08:32.303Z,92.85
2018-03-28T22:11:00.928Z,93.86
2018-03-28T22:13:29.243Z,95.17
2018-03-28T22:15:57.553Z,94.16
2018-03-28T22:18:26.578Z,94.51
2018-03-28T22:20:54.828Z,93.05
2018-03-28T22:23:23.874Z,93.42
2018-03-28T22:25:52.130Z,94.10
2018-03-28T22:28:20.405Z,94.58
2018-03-28T22:30:48.741Z,95.14
2018-03-28T22:33:17.764Z,95.15
2018-03-28T22:35:46.031Z,96.11
2018-03-28T22:38:15.066Z,95.26
2018-03-28T22:40:43.319Z,96.30
2018-03-28T22:43:11.600Z,95.64
2018-03-28T22:45:39.860Z,95.24
2018-03-28T22:48:08.113Z,94.76
2018-03-28T22:50:37.141Z,93.13
2018-03-28T22:53:05.399Z,93.95
2018-03-28T22:55:33.668Z,93.25
2018-03-28T22:58:02.709Z,92.01
2018-03-28T23:00:30.972Z,90.27
2018-03-28T23:02:59.234Z,91.89
2018-03-28T23:05:27.519Z,91.73
2018-03-28T23:07:55.827Z,92.57
2018-03-28T23:10:24.030Z,92.11
2018-03-28T23:12:53.101Z,91.67
2018-03-28T23:15:21.355Z,92.80
2018-03-28T23:17:49.624Z,92.48
2018-03-28T23:20:17.893Z,91.76
2018-03-28T23:22:46.152Z,91.02
2018-03-28T23:25:14.404Z,92.61
2018-03-28T23:27:43.444Z,92.25
2018-03-28T23:30:11.695Z,92.23
2018-03-28T23:32:39.949Z,91.10
2018-03-28T23:35:08.985Z,91.79
2018-03-28T23:37:37.240Z,92.06
2018-03-28T23:40:05.505Z,90.37
2018-03-28T23:42:34.525Z,89.96
2018-03-28T23:45:02.800Z,89.44
2018-03-28T23:47:31.073Z,90.83
2018-03-28T23:49:59.337Z,90.55
2018-03-28T23:52:27.616Z,90.18
2018-03-28T23:54:55.867Z,89.08
2018-03-28T23:57:24.929Z,88.63
2018-03-28T23:59:53.196Z,88.14
